Terminal Aerodrome Forecast
Issued by NWS Chicago, IL

Home | Current Version | Previous Version | Graphics & Text | Print | Product List | Glossary On
Versions: 1 2 3 4 5 6 7 8 9 10 11 12 13 14 15 16 17 18 19 20 21 22 23 24 25 26 27 28 29 30 31 32 33 34
000
FTUS43 KLOT 212300
TAFRFD
TAF
KRFD 212340Z 2200/2224 17008KT P6SM SCT150 SCT250
     FM220300 17011KT P6SM BKN025 OVC035
     FM220600 19012KT P6SM VCSH BKN015 OVC025 WS020/22045KT
      TEMPO 2207/2211 3SM -FZRA BR BKN008 OVC015
     FM221200 21011KT 6SM BR VCSH BKN008 OVC015
     FM221700 21012KT P6SM SCT010 OVC015=

USA.gov is the U.S. government's official web portal to all federal, state and local government web resources and services.